Zapphire — 9HA2214 — position and weather

sailwx.info

Track history (hours):
 
Tides and Currents Weather Stations Pressure Air Temp Water Temp Dewpoint Dewpoint Depression Visibility Wind Speed Wind Dir Waves Ship Positions

Zapphire

Last reported at 2017-Nov-20 00:31 UTC. Time now 2017-Nov-22 22:18 UTC.
Position N 37°51' W 009°56'.

Length 182 m; draft 8 m.

Type: Ship. MMSI: 248119318.

Date/timePositionNaut miles runAvg speedWind from/ knotsBaromVisibWave heightAir tempDewpointWater temp
2017-Nov-20 00:31N 37°51' W 009°56'713.8
2017-Nov-20 00:01N 37°58' W 009°58'713.9
2017-Nov-19 23:30N 38°04' W 010°01'714.2
2017-Nov-19 23:00N 38°11' W 010°03'713.9
2017-Nov-19 22:30N 38°18' W 010°05'713.7
2017-Nov-19 22:00N 38°25' W 010°07'713.7
2017-Nov-19 21:30N 38°31' W 010°09'713.6
2017-Nov-19 21:00N 38°38' W 010°11'713.3
2017-Nov-19 20:30N 38°45' W 010°12'713.4
2017-Nov-19 20:01N 38°51' W 010°13'714.0
2017-Nov-19 19:30N 38°58' W 010°13'713.9
2017-Nov-19 19:00N 39°05' W 010°12'713.9
2017-Nov-19 18:30N 39°12' W 010°12'713.9
2017-Nov-19 18:00N 39°19' W 010°12'713.8
2017-Nov-19 17:30N 39°26' W 010°12'713.9
2017-Nov-19 17:00N 39°33' W 010°12'714.0
2017-Nov-19 16:31N 39°40' W 010°12'713.9
2017-Nov-19 16:00N 39°47' W 010°12'713.4
2017-Nov-19 15:30N 39°54' W 010°12'713.5
2017-Nov-19 15:01N 40°00' W 010°12'814.0
2017-Nov-19 14:27N 40°08' W 010°12'43313.2
2017-Nov-18 05:47N 47°02' W 007°20'513.1
2017-Nov-18 05:25N 47°07' W 007°16'813.8
2017-Nov-18 04:52N 47°13' W 007°11'713.6
2017-Nov-18 04:22N 47°19' W 007°06'513.4
2017-Nov-18 04:00N 47°24' W 007°03'713.1
2017-Nov-18 03:26N 47°30' W 006°58'612.7
2017-Nov-18 02:56N 47°36' W 006°53'712.3
2017-Nov-18 02:25N 47°41' W 006°48'712.1
2017-Nov-18 01:50N 47°48' W 006°44'1112.1
2017-Nov-18 00:58N 47°57' W 006°36'612.4
2017-Nov-18 00:29N 48°02' W 006°32'712.7
2017-Nov-17 23:54N 48°09' W 006°27'913.2
2017-Nov-17 23:15N 48°16' W 006°21'413.9
2017-Nov-17 22:56N 48°20' W 006°17'1314.1
2017-Nov-17 22:02N 48°31' W 006°09'114.5
2017-Nov-17 21:57N 48°32' W 006°08'4014.2
2017-Nov-17 19:08N 49°02' W 005°28'713.0
2017-Nov-17 18:38N 49°06' W 005°20'212.0
2017-Nov-17 18:26N 49°08' W 005°17'511.4
2017-Nov-17 17:59N 49°10' W 005°10'6712.7
2017-Nov-17 12:44N 49°43' W 003°41'315.0
2017-Nov-17 12:30N 49°45' W 003°36'815.3
2017-Nov-17 12:00N 49°48' W 003°26'815.4
2017-Nov-17 11:30N 49°52' W 003°15'815.2
2017-Nov-17 11:00N 49°57' W 003°06'714.9
2017-Nov-17 10:30N 50°00' W 002°55'714.5
2017-Nov-17 10:00N 50°02' W 002°44'713.8
2017-Nov-17 09:30N 50°04' W 002°34'2112.1
2017-Nov-17 07:45N 50°10' W 002°02'311.0
2017-Nov-17 07:30N 50°10' W 001°58'510.9
2017-Nov-17 07:00N 50°12' W 001°50'510.8
2017-Nov-17 06:30N 50°13' W 001°42'611.1
2017-Nov-17 06:00N 50°15' W 001°34'611.7
2017-Nov-17 05:30N 50°16' W 001°25'3814.4
2017-Nov-17 02:53N 50°28' W 000°28'615.3
2017-Nov-17 02:30N 50°28' W 000°19'815.7
2017-Nov-17 02:00N 50°30' W 000°08'815.5
2017-Nov-17 01:30N 50°32' E 000°04'815.4
2017-Nov-17 01:00N 50°35' E 000°16'815.3
2017-Nov-17 00:30N 50°37' E 000°27'714.7
2017-Nov-17 00:00N 50°40' E 000°38'714.4
2017-Nov-16 23:30N 50°44' E 000°47'713.6
2017-Nov-16 23:00N 50°48' E 000°56'713.1
2017-Nov-16 22:30N 50°52' E 001°04'712.8
2017-Nov-16 21:57N 50°56' E 001°13'612.7
2017-Nov-16 21:30N 51°00' E 001°20'713.3
2017-Nov-16 21:00N 51°04' E 001°28'714.6
2017-Nov-16 20:30N 51°09' E 001°37'815.1
2017-Nov-16 20:00N 51°14' E 001°46'816.2
2017-Nov-16 19:31N 51°21' E 001°51'816.1
2017-Nov-16 19:01N 51°28' E 001°58'815.7
2017-Nov-16 18:31N 51°34' E 002°07'37413.1
2017-Nov-15 13:55N 56°59' E 007°22'613.3
2017-Nov-15 13:30N 57°03' E 007°29'713.5
2017-Nov-15 13:01N 57°08' E 007°37'10412.4
2017-Nov-15 04:38N 58°02' E 010°23'212.4
2017-Nov-15 04:31N 58°03' E 010°26'612.4
2017-Nov-15 04:00N 58°06' E 010°36'612.4
2017-Nov-15 03:30N 58°08' E 010°47'612.5
2017-Nov-15 03:00N 58°11' E 010°57'612.2
2017-Nov-15 02:29N 58°14' E 011°08'4 8.8
2017-Nov-15 02:00N 58°16' E 011°15'5 9.3
2017-Nov-15 01:30N 58°19' E 011°21'4 7.1
2017-Nov-15 01:01N 58°21' E 011°26'86 1.8
2017-Nov-13 01:06N 57°35' E 009°09'214.2
2017-Nov-13 01:00N 57°34' E 009°06'714.1
2017-Nov-13 00:29N 57°31' E 008°55'714.5
2017-Nov-12 23:59N 57°27' E 008°43'714.7
2017-Nov-12 23:29N 57°23' E 008°31'38313.3
2017-Nov-11 18:34N 51°47' E 003°13'112.1
2017-Nov-11 18:29N 51°47' E 003°14'3 7.3
2017-Nov-11 18:01N 51°43' E 003°16'610.9
2017-Nov-11 17:28N 51°38' E 003°21'511.6
2017-Nov-11 17:00N 51°33' E 003°25'510.8
2017-Nov-11 16:30N 51°29' E 003°30'5 9.4
2017-Nov-11 16:00N 51°26' E 003°36'4 8.3
2017-Nov-11 15:30N 51°25' E 003°42'611.1
2017-Nov-11 15:00N 51°21' E 003°48'611.7
2017-Nov-11 14:30N 51°23' E 003°57'4 7.2
2017-Nov-11 14:00N 51°25' E 004°02'5 9.6
2017-Nov-11 13:31N 51°23' E 004°09'5 9.3
2017-Nov-11 13:01N 51°21' E 004°16'1 1.3
2017-Nov-11 12:31N 51°21' E 004°17'0 0.0
2017-Nov-11 11:59N 51°21' E 004°17'0 0.5
2017-Nov-11 11:30N 51°21' E 004°18'1 1.0
2017-Nov-11 11:00N 51°20' E 004°18'0 0.0
2017-Nov-11 10:30N 51°20' E 004°18'0 0.0
2017-Nov-11 10:00N 51°20' E 004°18'0 0.0
2017-Nov-11 09:30N 51°20' E 004°18'0 0.0
2017-Nov-11 08:57N 51°20' E 004°18'0 0.0
2017-Nov-11 08:27N 51°20' E 004°18'0 0.0
2017-Nov-11 08:00N 51°20' E 004°18'0 0.0
2017-Nov-11 07:30N 51°20' E 004°18'0 0.0
2017-Nov-11 07:00N 51°20' E 004°18'0 0.0
2017-Nov-11 06:27N 51°20' E 004°18'0 0.0
2017-Nov-11 06:00N 51°20' E 004°18'0 0.0
2017-Nov-11 05:30N 51°20' E 004°18'0 0.0
2017-Nov-11 04:57N 51°20' E 004°18'0 0.0
2017-Nov-11 04:27N 51°20' E 004°18'0 0.0
2017-Nov-11 03:57N 51°20' E 004°18'0 0.0
2017-Nov-11 03:27N 51°20' E 004°18'0 0.0
2017-Nov-11 03:00N 51°20' E 004°18'0 0.0
2017-Nov-11 02:27N 51°20' E 004°18'0 0.0
2017-Nov-11 02:00N 51°20' E 004°18'0 0.0
2017-Nov-11 01:30N 51°20' E 004°18'0 0.0
2017-Nov-11 01:00N 51°20' E 004°18'0 0.0
2017-Nov-11 00:30N 51°20' E 004°18'0 0.0
2017-Nov-10 23:57N 51°20' E 004°18'0 0.0
2017-Nov-10 23:30N 51°20' E 004°18'0 0.0
2017-Nov-10 23:00N 51°20' E 004°18'0 0.0
2017-Nov-10 22:27N 51°20' E 004°18'0 0.0
2017-Nov-10 22:00N 51°20' E 004°18'0 0.0
2017-Nov-10 21:30N 51°20' E 004°18'0 0.0
2017-Nov-10 21:00N 51°20' E 004°18'0 0.0
2017-Nov-10 20:30N 51°20' E 004°18'0 0.0
2017-Nov-10 20:00N 51°20' E 004°18'0 0.0
2017-Nov-10 19:30N 51°20' E 004°18'0 0.0
2017-Nov-10 19:00N 51°20' E 004°18'0 0.0
2017-Nov-10 18:24N 51°20' E 004°18'0 0.0
2017-Nov-10 18:00N 51°20' E 004°18'0 0.0
2017-Nov-10 17:21N 51°20' E 004°18'0 0.0
2017-Nov-10 17:00N 51°20' E 004°18'0 0.0
2017-Nov-10 16:30N 51°20' E 004°18'0 0.0
2017-Nov-10 16:00N 51°20' E 004°18'0 0.0
2017-Nov-10 15:30N 51°20' E 004°18'0 0.0
2017-Nov-10 15:00N 51°20' E 004°18'0 0.0
2017-Nov-10 14:21N 51°20' E 004°18'0 0.0
2017-Nov-10 13:51N 51°20' E 004°18'0 0.0
2017-Nov-10 13:21N 51°20' E 004°18'0 0.0
2017-Nov-10 13:00N 51°20' E 004°18'0 0.0
2017-Nov-10 12:27N 51°20' E 004°18'0 0.0
2017-Nov-10 11:57N 51°20' E 004°18'0 0.0
2017-Nov-10 11:27N 51°20' E 004°18'0 0.0
2017-Nov-10 10:54N 51°20' E 004°18'0 0.0
2017-Nov-10 10:24N 51°20' E 004°18'0 0.0
2017-Nov-10 09:54N 51°20' E 004°18'0 0.0
2017-Nov-10 09:30N 51°20' E 004°18'0 0.0
2017-Nov-10 08:57N 51°20' E 004°18'0 0.0
2017-Nov-10 08:30N 51°20' E 004°18'0 0.0
2017-Nov-10 08:00N 51°20' E 004°18'0 0.0
2017-Nov-10 07:27N 51°20' E 004°18'0 0.0
2017-Nov-10 06:57N 51°20' E 004°18'0 0.0
2017-Nov-10 06:18N 51°20' E 004°18'0 0.0
2017-Nov-10 05:57N 51°20' E 004°18'0 0.0
2017-Nov-10 05:27N 51°20' E 004°18'0 0.0
2017-Nov-10 04:42N 51°20' E 004°18'0 0.0
2017-Nov-10 04:27N 51°20' E 004°18'0 0.0
2017-Nov-10 03:57N 51°20' E 004°18'0 0.0
2017-Nov-10 03:27N 51°20' E 004°18'0 0.0
2017-Nov-10 03:00N 51°20' E 004°18'0 0.0
2017-Nov-10 02:24N 51°20' E 004°18'0 0.0
2017-Nov-10 02:00N 51°20' E 004°18'0 0.0
2017-Nov-10 01:30N 51°20' E 004°18'0 0.0
2017-Nov-10 01:00N 51°20' E 004°18'  
Track history (hours):
 
Tides and Currents Weather Stations Pressure Air Temp Water Temp Dewpoint Dewpoint Depression Visibility Wind Speed Wind Dir Waves Ship Positions

Zapphire

Last reported at 2017-Nov-20 00:31 UTC. Time now 2017-Nov-22 22:18 UTC.
Position N 37°51' W 009°56'.

Length 182 m; draft 8 m.

Type: Ship. MMSI: 248119318.

Date/timePositionNaut miles runAvg speedWind from/ knotsBaromVisibWave heightAir tempDewpointWater temp
2017-Nov-20 00:31N 37°51' W 009°56'713.8
2017-Nov-20 00:01N 37°58' W 009°58'713.9
2017-Nov-19 23:30N 38°04' W 010°01'714.2
2017-Nov-19 23:00N 38°11' W 010°03'713.9
2017-Nov-19 22:30N 38°18' W 010°05'713.7
2017-Nov-19 22:00N 38°25' W 010°07'713.7
2017-Nov-19 21:30N 38°31' W 010°09'713.6
2017-Nov-19 21:00N 38°38' W 010°11'713.3
2017-Nov-19 20:30N 38°45' W 010°12'713.4
2017-Nov-19 20:01N 38°51' W 010°13'714.0
2017-Nov-19 19:30N 38°58' W 010°13'713.9
2017-Nov-19 19:00N 39°05' W 010°12'713.9
2017-Nov-19 18:30N 39°12' W 010°12'713.9
2017-Nov-19 18:00N 39°19' W 010°12'713.8
2017-Nov-19 17:30N 39°26' W 010°12'713.9
2017-Nov-19 17:00N 39°33' W 010°12'714.0
2017-Nov-19 16:31N 39°40' W 010°12'713.9
2017-Nov-19 16:00N 39°47' W 010°12'713.4
2017-Nov-19 15:30N 39°54' W 010°12'713.5
2017-Nov-19 15:01N 40°00' W 010°12'814.0
2017-Nov-19 14:27N 40°08' W 010°12'43313.2
2017-Nov-18 05:47N 47°02' W 007°20'513.1
2017-Nov-18 05:25N 47°07' W 007°16'813.8
2017-Nov-18 04:52N 47°13' W 007°11'713.6
2017-Nov-18 04:22N 47°19' W 007°06'513.4
2017-Nov-18 04:00N 47°24' W 007°03'713.1
2017-Nov-18 03:26N 47°30' W 006°58'612.7
2017-Nov-18 02:56N 47°36' W 006°53'712.3
2017-Nov-18 02:25N 47°41' W 006°48'712.1
2017-Nov-18 01:50N 47°48' W 006°44'1112.1
2017-Nov-18 00:58N 47°57' W 006°36'612.4
2017-Nov-18 00:29N 48°02' W 006°32'712.7
2017-Nov-17 23:54N 48°09' W 006°27'913.2
2017-Nov-17 23:15N 48°16' W 006°21'413.9
2017-Nov-17 22:56N 48°20' W 006°17'1314.1
2017-Nov-17 22:02N 48°31' W 006°09'114.5
2017-Nov-17 21:57N 48°32' W 006°08'4014.2
2017-Nov-17 19:08N 49°02' W 005°28'713.0
2017-Nov-17 18:38N 49°06' W 005°20'212.0
2017-Nov-17 18:26N 49°08' W 005°17'511.4
2017-Nov-17 17:59N 49°10' W 005°10'6712.7
2017-Nov-17 12:44N 49°43' W 003°41'315.0
2017-Nov-17 12:30N 49°45' W 003°36'815.3
2017-Nov-17 12:00N 49°48' W 003°26'815.4
2017-Nov-17 11:30N 49°52' W 003°15'815.2
2017-Nov-17 11:00N 49°57' W 003°06'714.9
2017-Nov-17 10:30N 50°00' W 002°55'714.5
2017-Nov-17 10:00N 50°02' W 002°44'713.8
2017-Nov-17 09:30N 50°04' W 002°34'2112.1
2017-Nov-17 07:45N 50°10' W 002°02'311.0
2017-Nov-17 07:30N 50°10' W 001°58'510.9
2017-Nov-17 07:00N 50°12' W 001°50'510.8
2017-Nov-17 06:30N 50°13' W 001°42'611.1
2017-Nov-17 06:00N 50°15' W 001°34'611.7
2017-Nov-17 05:30N 50°16' W 001°25'3814.4
2017-Nov-17 02:53N 50°28' W 000°28'615.3
2017-Nov-17 02:30N 50°28' W 000°19'815.7
2017-Nov-17 02:00N 50°30' W 000°08'815.5
2017-Nov-17 01:30N 50°32' E 000°04'815.4
2017-Nov-17 01:00N 50°35' E 000°16'815.3
2017-Nov-17 00:30N 50°37' E 000°27'714.7
2017-Nov-17 00:00N 50°40' E 000°38'714.4
2017-Nov-16 23:30N 50°44' E 000°47'713.6
2017-Nov-16 23:00N 50°48' E 000°56'713.1
2017-Nov-16 22:30N 50°52' E 001°04'712.8
2017-Nov-16 21:57N 50°56' E 001°13'612.7
2017-Nov-16 21:30N 51°00' E 001°20'713.3
2017-Nov-16 21:00N 51°04' E 001°28'714.6
2017-Nov-16 20:30N 51°09' E 001°37'815.1
2017-Nov-16 20:00N 51°14' E 001°46'816.2
2017-Nov-16 19:31N 51°21' E 001°51'816.1
2017-Nov-16 19:01N 51°28' E 001°58'815.7
2017-Nov-16 18:31N 51°34' E 002°07'37413.1
2017-Nov-15 13:55N 56°59' E 007°22'613.3
2017-Nov-15 13:30N 57°03' E 007°29'713.5
2017-Nov-15 13:01N 57°08' E 007°37'10412.4
2017-Nov-15 04:38N 58°02' E 010°23'212.4
2017-Nov-15 04:31N 58°03' E 010°26'612.4
2017-Nov-15 04:00N 58°06' E 010°36'612.4
2017-Nov-15 03:30N 58°08' E 010°47'612.5
2017-Nov-15 03:00N 58°11' E 010°57'612.2
2017-Nov-15 02:29N 58°14' E 011°08'4 8.8
2017-Nov-15 02:00N 58°16' E 011°15'5 9.3
2017-Nov-15 01:30N 58°19' E 011°21'4 7.1
2017-Nov-15 01:01N 58°21' E 011°26'86 1.8
2017-Nov-13 01:06N 57°35' E 009°09'214.2
2017-Nov-13 01:00N 57°34' E 009°06'714.1
2017-Nov-13 00:29N 57°31' E 008°55'714.5
2017-Nov-12 23:59N 57°27' E 008°43'714.7
2017-Nov-12 23:29N 57°23' E 008°31'38313.3
2017-Nov-11 18:34N 51°47' E 003°13'112.1
2017-Nov-11 18:29N 51°47' E 003°14'3 7.3
2017-Nov-11 18:01N 51°43' E 003°16'610.9
2017-Nov-11 17:28N 51°38' E 003°21'511.6
2017-Nov-11 17:00N 51°33' E 003°25'510.8
2017-Nov-11 16:30N 51°29' E 003°30'5 9.4
2017-Nov-11 16:00N 51°26' E 003°36'4 8.3
2017-Nov-11 15:30N 51°25' E 003°42'611.1
2017-Nov-11 15:00N 51°21' E 003°48'611.7
2017-Nov-11 14:30N 51°23' E 003°57'4 7.2
2017-Nov-11 14:00N 51°25' E 004°02'5 9.6
2017-Nov-11 13:31N 51°23' E 004°09'5 9.3
2017-Nov-11 13:01N 51°21' E 004°16'1 1.3
2017-Nov-11 12:31N 51°21' E 004°17'0 0.0
2017-Nov-11 11:59N 51°21' E 004°17'0 0.5
2017-Nov-11 11:30N 51°21' E 004°18'1 1.0
2017-Nov-11 11:00N 51°20' E 004°18'0 0.0
2017-Nov-11 10:30N 51°20' E 004°18'0 0.0
2017-Nov-11 10:00N 51°20' E 004°18'0 0.0
2017-Nov-11 09:30N 51°20' E 004°18'0 0.0
2017-Nov-11 08:57N 51°20' E 004°18'0 0.0
2017-Nov-11 08:27N 51°20' E 004°18'0 0.0
2017-Nov-11 08:00N 51°20' E 004°18'0 0.0
2017-Nov-11 07:30N 51°20' E 004°18'0 0.0
2017-Nov-11 07:00N 51°20' E 004°18'0 0.0
2017-Nov-11 06:27N 51°20' E 004°18'0 0.0
2017-Nov-11 06:00N 51°20' E 004°18'0 0.0
2017-Nov-11 05:30N 51°20' E 004°18'0 0.0
2017-Nov-11 04:57N 51°20' E 004°18'0 0.0
2017-Nov-11 04:27N 51°20' E 004°18'0 0.0
2017-Nov-11 03:57N 51°20' E 004°18'0 0.0
2017-Nov-11 03:27N 51°20' E 004°18'0 0.0
2017-Nov-11 03:00N 51°20' E 004°18'0 0.0
2017-Nov-11 02:27N 51°20' E 004°18'0 0.0
2017-Nov-11 02:00N 51°20' E 004°18'0 0.0
2017-Nov-11 01:30N 51°20' E 004°18'0 0.0
2017-Nov-11 01:00N 51°20' E 004°18'0 0.0
2017-Nov-11 00:30N 51°20' E 004°18'0 0.0
2017-Nov-10 23:57N 51°20' E 004°18'0 0.0
2017-Nov-10 23:30N 51°20' E 004°18'0 0.0
2017-Nov-10 23:00N 51°20' E 004°18'0 0.0
2017-Nov-10 22:27N 51°20' E 004°18'0 0.0
2017-Nov-10 22:00N 51°20' E 004°18'0 0.0
2017-Nov-10 21:30N 51°20' E 004°18'0 0.0
2017-Nov-10 21:00N 51°20' E 004°18'0 0.0
2017-Nov-10 20:30N 51°20' E 004°18'0 0.0
2017-Nov-10 20:00N 51°20' E 004°18'0 0.0
2017-Nov-10 19:30N 51°20' E 004°18'0 0.0
2017-Nov-10 19:00N 51°20' E 004°18'0 0.0
2017-Nov-10 18:24N 51°20' E 004°18'0 0.0
2017-Nov-10 18:00N 51°20' E 004°18'0 0.0
2017-Nov-10 17:21N 51°20' E 004°18'0 0.0
2017-Nov-10 17:00N 51°20' E 004°18'0 0.0
2017-Nov-10 16:30N 51°20' E 004°18'0 0.0
2017-Nov-10 16:00N 51°20' E 004°18'0 0.0
2017-Nov-10 15:30N 51°20' E 004°18'0 0.0
2017-Nov-10 15:00N 51°20' E 004°18'0 0.0
2017-Nov-10 14:21N 51°20' E 004°18'0 0.0
2017-Nov-10 13:51N 51°20' E 004°18'0 0.0
2017-Nov-10 13:21N 51°20' E 004°18'0 0.0
2017-Nov-10 13:00N 51°20' E 004°18'0 0.0
2017-Nov-10 12:27N 51°20' E 004°18'0 0.0
2017-Nov-10 11:57N 51°20' E 004°18'0 0.0
2017-Nov-10 11:27N 51°20' E 004°18'0 0.0
2017-Nov-10 10:54N 51°20' E 004°18'0 0.0
2017-Nov-10 10:24N 51°20' E 004°18'0 0.0
2017-Nov-10 09:54N 51°20' E 004°18'0 0.0
2017-Nov-10 09:30N 51°20' E 004°18'0 0.0
2017-Nov-10 08:57N 51°20' E 004°18'0 0.0
2017-Nov-10 08:30N 51°20' E 004°18'0 0.0
2017-Nov-10 08:00N 51°20' E 004°18'0 0.0
2017-Nov-10 07:27N 51°20' E 004°18'0 0.0
2017-Nov-10 06:57N 51°20' E 004°18'0 0.0
2017-Nov-10 06:18N 51°20' E 004°18'0 0.0
2017-Nov-10 05:57N 51°20' E 004°18'0 0.0
2017-Nov-10 05:27N 51°20' E 004°18'0 0.0
2017-Nov-10 04:42N 51°20' E 004°18'0 0.0
2017-Nov-10 04:27N 51°20' E 004°18'0 0.0
2017-Nov-10 03:57N 51°20' E 004°18'0 0.0
2017-Nov-10 03:27N 51°20' E 004°18'0 0.0
2017-Nov-10 03:00N 51°20' E 004°18'0 0.0
2017-Nov-10 02:24N 51°20' E 004°18'0 0.0
2017-Nov-10 02:00N 51°20' E 004°18'0 0.0
2017-Nov-10 01:30N 51°20' E 004°18'0 0.0
2017-Nov-10 01:00N 51°20' E 004°18'  

Dump ship's entire track history